createdAt,value
2018-10-06T00:00:14.805Z,96666.29
2018-10-06T00:01:52.639Z,96667.02
2018-10-06T00:03:28.440Z,96662.95
2018-10-06T00:05:09.301Z,96661.11
2018-10-06T00:06:50.956Z,96658.17
2018-10-06T00:08:27.774Z,96656.69
2018-10-06T00:10:03.858Z,96648.39
2018-10-06T00:11:39.850Z,96658.41
2018-10-06T00:13:15.632Z,96652.77
2018-10-06T00:14:51.150Z,96650.29
2018-10-06T00:16:29.479Z,96648.77
2018-10-06T00:18:06.297Z,96651.09
2018-10-06T00:19:42.116Z,96648.64
2018-10-06T00:21:18.376Z,96642.88
2018-10-06T00:22:54.463Z,96647.52
2018-10-06T00:24:32.225Z,96648.28
2018-10-06T00:26:11.013Z,96647.48
2018-10-06T00:27:51.498Z,96640.66
2018-10-06T00:29:28.357Z,96636.27
2018-10-06T00:31:04.108Z,96628.99
2018-10-06T00:32:42.063Z,96638.55
2018-10-06T00:34:21.354Z,96639.77
2018-10-06T00:35:58.303Z,96632.00
2018-10-06T00:37:36.687Z,96633.25
2018-10-06T00:39:13.133Z,96629.95
2018-10-06T00:40:50.674Z,96633.77
2018-10-06T00:42:28.401Z,96633.53
2018-10-06T00:44:05.557Z,96637.51
2018-10-06T00:45:45.117Z,96634.02
2018-10-06T00:47:23.190Z,96631.03
2018-10-06T00:49:00.290Z,96634.33
2018-10-06T00:50:36.156Z,96625.40
2018-10-06T00:52:12.272Z,96631.47
2018-10-06T00:53:48.454Z,96630.07
2018-10-06T00:55:24.979Z,96632.48
2018-10-06T00:57:02.829Z,96631.69
2018-10-06T00:58:41.529Z,96634.77
2018-10-06T01:00:19.320Z,96627.47
2018-10-06T01:01:55.061Z,96620.79
2018-10-06T01:03:31.374Z,96619.11
2018-10-06T01:05:10.796Z,96615.64
2018-10-06T01:06:49.222Z,96613.38
2018-10-06T01:08:27.176Z,96617.30
2018-10-06T01:10:03.696Z,96615.77
2018-10-06T01:11:42.084Z,96607.44
2018-10-06T01:13:18.788Z,96605.34
2018-10-06T01:15:02.667Z,96604.83
2018-10-06T01:16:46.714Z,96607.09
2018-10-06T01:18:26.122Z,96601.34
2018-10-06T01:20:04.901Z,96598.79
2018-10-06T01:21:43.603Z,96599.20
2018-10-06T01:23:20.109Z,96593.00
2018-10-06T01:24:58.125Z,96597.39
2018-10-06T01:26:37.070Z,96588.59
2018-10-06T01:28:33.081Z,96593.61
2018-10-06T01:30:13.003Z,96587.06
2018-10-06T01:31:51.435Z,96584.91
2018-10-06T01:33:56.549Z,96589.51
2018-10-06T01:35:36.716Z,96587.83
2018-10-06T01:37:21.539Z,96582.07
2018-10-06T01:39:01.677Z,96584.77
2018-10-06T01:40:39.794Z,96584.64
2018-10-06T01:42:20.677Z,96580.39
2018-10-06T01:43:58.327Z,96583.88
2018-10-06T01:45:37.446Z,96579.18
2018-10-06T01:47:13.816Z,96583.98
2018-10-06T01:48:49.005Z,96583.38
2018-10-06T01:50:25.174Z,96583.22
2018-10-06T01:52:00.427Z,96589.77
2018-10-06T01:53:36.617Z,96581.41
2018-10-06T01:55:12.541Z,96582.64
2018-10-06T01:56:49.211Z,96584.05
2018-10-06T01:58:25.910Z,96584.17
2018-10-06T02:00:01.410Z,96587.92
2018-10-06T02:01:38.639Z,96582.96
2018-10-06T02:03:14.301Z,96580.09
2018-10-06T02:04:50.808Z,96585.41
2018-10-06T02:06:27.690Z,96590.72
2018-10-06T02:08:03.575Z,96577.81
2018-10-06T02:09:39.737Z,96583.85
2018-10-06T02:11:15.926Z,96578.55
2018-10-06T02:12:52.311Z,96575.17
2018-10-06T02:14:28.353Z,96576.92
2018-10-06T02:16:04.465Z,96568.95
2018-10-06T02:17:41.136Z,96569.52
2018-10-06T02:19:16.465Z,96565.10
2018-10-06T02:20:51.568Z,96562.81
2018-10-06T02:22:27.572Z,96554.02
2018-10-06T02:24:03.601Z,96561.19
2018-10-06T02:25:45.347Z,96559.86
2018-10-06T02:27:21.861Z,96558.45
2018-10-06T02:29:02.267Z,96556.17
2018-10-06T02:30:39.475Z,96553.28
2018-10-06T02:32:17.385Z,96553.47
2018-10-06T02:33:52.890Z,96555.89
2018-10-06T02:35:28.452Z,96557.54
2018-10-06T02:37:04.289Z,96557.25
2018-10-06T02:38:39.873Z,96551.47
2018-10-06T02:40:15.505Z,96550.70
2018-10-06T02:41:50.874Z,96546.16
2018-10-06T02:43:26.625Z,96543.88
2018-10-06T02:45:04.286Z,96548.13
2018-10-06T02:46:40.169Z,96543.14
2018-10-06T02:48:16.415Z,96547.53
2018-10-06T02:49:52.421Z,96544.00
2018-10-06T02:51:31.667Z,96546.38
2018-10-06T02:53:07.153Z,96548.98
2018-10-06T02:54:44.145Z,96543.84
2018-10-06T02:56:19.644Z,96547.47
2018-10-06T02:57:55.220Z,96550.16
2018-10-06T02:59:30.789Z,96547.11
2018-10-06T03:01:06.313Z,96547.11
2018-10-06T03:02:42.117Z,96548.47
2018-10-06T03:04:18.880Z,96549.08
2018-10-06T03:05:54.499Z,96545.74
2018-10-06T03:07:30.281Z,96544.53
2018-10-06T03:09:09.770Z,96541.73
2018-10-06T03:10:45.961Z,96538.88
2018-10-06T03:12:21.205Z,96539.52
2018-10-06T03:13:58.790Z,96536.30
2018-10-06T03:15:35.551Z,96536.43
2018-10-06T03:17:10.745Z,96528.52
2018-10-06T03:18:48.051Z,96523.34
2018-10-06T03:20:25.229Z,96525.27
2018-10-06T03:22:02.043Z,96521.94
2018-10-06T03:23:37.831Z,96513.30
2018-10-06T03:25:13.084Z,96513.25
2018-10-06T03:26:48.748Z,96509.77
2018-10-06T03:28:24.627Z,96510.80
2018-10-06T03:30:00.691Z,96510.20
2018-10-06T03:31:37.330Z,96510.40
2018-10-06T03:33:13.453Z,96506.94
2018-10-06T03:34:48.784Z,96510.32
2018-10-06T03:36:25.053Z,96508.16
2018-10-06T03:38:01.119Z,96502.41
2018-10-06T03:39:36.732Z,96498.92
2018-10-06T03:41:13.674Z,96501.77
2018-10-06T03:42:49.892Z,96496.67
2018-10-06T03:44:26.574Z,96493.98
2018-10-06T03:46:03.017Z,96487.27
2018-10-06T03:47:39.287Z,96496.08
2018-10-06T03:49:14.829Z,96495.63
2018-10-06T03:50:51.108Z,96491.49
2018-10-06T03:52:26.886Z,96496.14
2018-10-06T03:54:03.735Z,96496.14
2018-10-06T03:55:40.162Z,96491.89
2018-10-06T03:57:16.629Z,96489.05
2018-10-06T03:58:51.955Z,96492.58
2018-10-06T04:00:28.621Z,96491.38
2018-10-06T04:02:04.226Z,96489.24
2018-10-06T04:03:46.457Z,96487.27
2018-10-06T04:05:22.097Z,96490.02
2018-10-06T04:06:57.943Z,96489.56
2018-10-06T04:08:35.785Z,96479.70
2018-10-06T04:10:11.714Z,96476.71
2018-10-06T04:11:47.521Z,96478.11
2018-10-06T04:13:24.460Z,96471.73
2018-10-06T04:15:00.483Z,96471.37
2018-10-06T04:16:36.101Z,96468.92
2018-10-06T04:18:15.173Z,96468.41
2018-10-06T04:19:54.088Z,96467.11
2018-10-06T04:21:49.042Z,96467.62
2018-10-06T04:23:37.796Z,96464.21
2018-10-06T04:25:14.495Z,96462.47
2018-10-06T04:26:49.542Z,96465.94
2018-10-06T04:28:25.428Z,96460.48
2018-10-06T04:30:03.956Z,96463.89
2018-10-06T04:31:40.393Z,96456.44
2018-10-06T04:33:16.601Z,96458.39
2018-10-06T04:34:52.516Z,96459.41
2018-10-06T04:36:29.252Z,96449.59
2018-10-06T04:38:04.971Z,96450.75
2018-10-06T04:39:40.302Z,96455.05
2018-10-06T04:41:17.817Z,96441.25
2018-10-06T04:42:52.914Z,96446.17
2018-10-06T04:44:29.105Z,96443.13
2018-10-06T04:46:06.795Z,96437.61
2018-10-06T04:47:42.116Z,96439.45
2018-10-06T04:49:17.597Z,96435.27
2018-10-06T04:50:52.930Z,96431.98
2018-10-06T04:52:29.057Z,96435.75
2018-10-06T04:54:04.689Z,96438.37
2018-10-06T04:55:39.937Z,96433.52
2018-10-06T04:57:15.229Z,96437.48
2018-10-06T04:58:50.614Z,96431.23
2018-10-06T05:00:26.872Z,96433.30
2018-10-06T05:02:02.474Z,96431.16
2018-10-06T05:03:37.804Z,96431.97
2018-10-06T05:05:13.252Z,96432.08
2018-10-06T05:06:48.725Z,96439.66
2018-10-06T05:08:24.286Z,96437.05
2018-10-06T05:09:59.638Z,96443.83
2018-10-06T05:11:35.122Z,96441.22
2018-10-06T05:13:10.406Z,96441.22
2018-10-06T05:14:45.641Z,96438.49
2018-10-06T05:16:21.863Z,96441.73
2018-10-06T05:17:59.504Z,96440.09
2018-10-06T05:19:34.798Z,96444.13
2018-10-06T05:21:10.024Z,96447.78
2018-10-06T05:22:45.720Z,96441.97
2018-10-06T05:24:22.636Z,96440.33
2018-10-06T05:26:00.429Z,96442.11
2018-10-06T05:27:35.891Z,96441.67
2018-10-06T05:29:11.268Z,96446.55
2018-10-06T05:30:46.531Z,96447.03
2018-10-06T05:32:21.941Z,96449.59
2018-10-06T05:33:57.526Z,96447.14
2018-10-06T05:35:32.895Z,96447.03
2018-10-06T05:37:09.331Z,96448.12
2018-10-06T05:38:44.589Z,96448.02
2018-10-06T05:40:22.590Z,96439.63
2018-10-06T05:41:58.185Z,96442.95
2018-10-06T05:43:33.790Z,96445.08
2018-10-06T05:45:09.956Z,96449.17
2018-10-06T05:46:45.672Z,96445.41
2018-10-06T05:48:20.971Z,96448.66
2018-10-06T05:49:56.812Z,96447.23
2018-10-06T05:51:32.079Z,96444.82
2018-10-06T05:53:07.359Z,96439.52
2018-10-06T05:54:42.862Z,96438.94
2018-10-06T05:56:19.522Z,96436.48
2018-10-06T05:57:55.251Z,96435.44
2018-10-06T05:59:31.882Z,96431.84
2018-10-06T06:01:07.208Z,96433.16
2018-10-06T06:02:42.489Z,96436.65
2018-10-06T06:04:18.393Z,96432.27
2018-10-06T06:05:53.949Z,96436.48
2018-10-06T06:07:29.354Z,96428.91
2018-10-06T06:09:11.385Z,96430.75
2018-10-06T06:10:53.576Z,96425.94
2018-10-06T06:12:28.847Z,96428.47
2018-10-06T06:14:04.095Z,96426.98
2018-10-06T06:15:41.983Z,96430.15
2018-10-06T06:17:17.247Z,96429.81
2018-10-06T06:18:53.692Z,96427.37
2018-10-06T06:20:29.331Z,96425.41
2018-10-06T06:22:04.518Z,96427.25
2018-10-06T06:23:40.356Z,96432.55
2018-10-06T06:25:15.600Z,96427.55
2018-10-06T06:26:51.342Z,96426.82
2018-10-06T06:28:27.209Z,96424.69
2018-10-06T06:30:03.944Z,96430.95
2018-10-06T06:31:40.015Z,96431.08
2018-10-06T06:33:15.693Z,96434.84
2018-10-06T06:34:52.352Z,96440.45
2018-10-06T06:36:28.186Z,96432.11
2018-10-06T06:38:04.281Z,96429.27
2018-10-06T06:39:39.530Z,96433.40
2018-10-06T06:41:14.744Z,96434.61
2018-10-06T06:42:50.545Z,96430.84
2018-10-06T06:44:27.989Z,96428.47
2018-10-06T06:46:03.417Z,96431.36
2018-10-06T06:47:43.535Z,96429.27
2018-10-06T06:49:20.334Z,96426.70
2018-10-06T06:50:55.541Z,96425.49
2018-10-06T06:52:30.976Z,96426.00
2018-10-06T06:54:06.859Z,96430.42
2018-10-06T06:55:42.648Z,96433.50
2018-10-06T06:57:18.729Z,96432.45
2018-10-06T06:58:55.734Z,96422.77
2018-10-06T07:00:30.957Z,96426.88
2018-10-06T07:02:06.705Z,96423.57
2018-10-06T07:03:44.001Z,96422.09
2018-10-06T07:05:24.171Z,96423.30
2018-10-06T07:07:02.396Z,96423.47
2018-10-06T07:08:38.112Z,96424.09
2018-10-06T07:10:13.977Z,96424.41
2018-10-06T07:11:54.244Z,96415.02
2018-10-06T07:13:29.852Z,96419.56
2018-10-06T07:15:08.188Z,96415.78
2018-10-06T07:16:44.209Z,96419.42
2018-10-06T07:18:22.695Z,96416.09
2018-10-06T07:19:58.295Z,96415.04
2018-10-06T07:21:36.795Z,96425.21
2018-10-06T07:23:18.380Z,96421.45
2018-10-06T07:24:54.243Z,96421.58
2018-10-06T07:26:30.465Z,96414.56
2018-10-06T07:28:10.543Z,96414.39
2018-10-06T07:29:56.590Z,96406.48
2018-10-06T07:31:35.461Z,96407.81
2018-10-06T07:33:21.874Z,96405.19
2018-10-06T07:35:01.364Z,96406.06
2018-10-06T07:36:38.681Z,96398.30
2018-10-06T07:38:18.355Z,96401.13
2018-10-06T07:40:02.179Z,96401.70
2018-10-06T07:41:49.676Z,96394.07
2018-10-06T07:43:26.174Z,96399.33
2018-10-06T07:45:06.525Z,96405.38
2018-10-06T07:46:42.879Z,96406.67
2018-10-06T07:48:20.822Z,96411.68
2018-10-06T07:49:57.901Z,96404.17
2018-10-06T07:51:33.951Z,96415.08
2018-10-06T07:53:10.360Z,96410.30
2018-10-06T07:54:46.350Z,96412.66
2018-10-06T07:56:23.593Z,96411.23
2018-10-06T07:58:00.048Z,96405.65
2018-10-06T07:59:35.502Z,96408.59
2018-10-06T08:01:12.005Z,96408.09
2018-10-06T08:02:47.602Z,96403.98
2018-10-06T08:04:22.820Z,96404.09
2018-10-06T08:06:03.857Z,96395.04
2018-10-06T08:07:43.297Z,96399.47
2018-10-06T08:09:19.121Z,96393.80
2018-10-06T08:10:54.333Z,96390.44
2018-10-06T08:12:31.294Z,96393.84
2018-10-06T08:15:53.821Z,96392.78
2018-10-06T08:17:31.080Z,96395.69
2018-10-06T08:19:08.177Z,96382.39
2018-10-06T08:20:44.556Z,96384.33
2018-10-06T08:22:19.709Z,96387.24
2018-10-06T08:24:05.004Z,96380.16
2018-10-06T08:25:40.262Z,96380.62
2018-10-06T08:27:17.441Z,96374.73
2018-10-06T08:29:00.378Z,96367.91
2018-10-06T08:30:44.893Z,96371.55
2018-10-06T08:32:32.112Z,96360.13
2018-10-06T08:34:10.369Z,96357.48
2018-10-06T08:35:49.231Z,96357.23
2018-10-06T08:37:26.655Z,96360.02
2018-10-06T08:39:08.651Z,96352.47
2018-10-06T08:40:44.790Z,96351.46
2018-10-06T08:42:20.493Z,96346.16
2018-10-06T08:44:10.383Z,96348.27
2018-10-06T08:45:46.700Z,96336.53
2018-10-06T08:47:22.687Z,96341.70
2018-10-06T08:49:00.213Z,96342.44
2018-10-06T08:50:36.229Z,96342.32
2018-10-06T08:52:12.923Z,96341.64
2018-10-06T08:53:48.403Z,96346.14
2018-10-06T08:55:24.821Z,96350.96
2018-10-06T08:57:00.873Z,96340.03
2018-10-06T08:58:39.619Z,96337.56
2018-10-06T09:00:17.299Z,96342.47
2018-10-06T09:01:54.498Z,96338.73
2018-10-06T09:03:35.969Z,96339.70
2018-10-06T09:05:16.636Z,96333.91
2018-10-06T09:07:02.866Z,96335.27
2018-10-06T09:08:38.732Z,96326.95
2018-10-06T09:10:18.162Z,96332.89
2018-10-06T09:11:53.780Z,96333.84
2018-10-06T09:21:24.335Z,96316.66
2018-10-06T09:23:01.243Z,96317.81
2018-10-06T09:24:44.333Z,96315.17
2018-10-06T09:26:24.288Z,96306.66
2018-10-06T09:28:02.711Z,96307.82
2018-10-06T09:33:37.876Z,96306.60
2018-10-06T09:35:15.007Z,96304.58
2018-10-06T09:36:51.604Z,96300.69
2018-10-06T09:38:29.255Z,96306.43
2018-10-06T09:40:06.754Z,96304.26
2018-10-06T09:41:43.337Z,96304.45
2018-10-06T09:43:20.016Z,96304.75
2018-10-06T09:44:55.853Z,96293.08
2018-10-06T09:46:33.542Z,96298.00
2018-10-06T09:48:09.735Z,96292.72
2018-10-06T09:49:46.235Z,96292.98
2018-10-06T09:51:23.121Z,96291.59
2018-10-06T09:53:00.379Z,96287.70
2018-10-06T09:54:37.624Z,96286.93
2018-10-06T09:56:14.386Z,96278.59
2018-10-06T09:57:52.810Z,96276.57
2018-10-06T09:59:30.305Z,96272.70
2018-10-06T10:01:11.890Z,96271.45
2018-10-06T10:02:53.379Z,96271.41
2018-10-06T10:04:30.734Z,96268.36
2018-10-06T10:06:08.222Z,96268.58
2018-10-06T10:07:46.395Z,96266.42
2018-10-06T10:09:27.247Z,96261.48
2018-10-06T10:11:07.502Z,96267.58
2018-10-06T10:12:44.643Z,96269.96
2018-10-06T10:14:23.384Z,96262.99
2018-10-06T10:16:00.246Z,96263.81
2018-10-06T10:17:41.534Z,96262.03
2018-10-06T10:19:20.343Z,96262.94
2018-10-06T10:20:56.977Z,96265.34
2018-10-06T10:22:35.297Z,96267.17
2018-10-06T10:24:13.020Z,96274.58
2018-10-06T10:25:58.413Z,96268.91
2018-10-06T10:27:38.056Z,96272.38
2018-10-06T10:29:17.963Z,96269.27
2018-10-06T10:30:55.302Z,96264.72
2018-10-06T10:32:32.317Z,96265.66
2018-10-06T10:34:10.820Z,96266.30
2018-10-06T10:35:47.429Z,96270.66
2018-10-06T10:37:26.060Z,96275.27
2018-10-06T10:39:02.680Z,96269.48
2018-10-06T10:40:40.358Z,96273.34
2018-10-06T10:42:16.547Z,96267.05
2018-10-06T10:43:57.059Z,96265.76
2018-10-06T10:45:34.143Z,96267.91
2018-10-06T10:47:10.618Z,96259.09
2018-10-06T10:48:48.375Z,96255.36
2018-10-06T10:50:24.488Z,96255.81
2018-10-06T10:52:00.879Z,96257.58
2018-10-06T10:53:37.835Z,96249.44
2018-10-06T10:55:15.490Z,96255.00
2018-10-06T10:56:53.868Z,96255.24
2018-10-06T10:58:32.765Z,96252.39
2018-10-06T11:00:10.405Z,96251.44
2018-10-06T11:01:54.376Z,96250.94
2018-10-06T11:03:37.507Z,96248.95
2018-10-06T11:05:20.583Z,96250.84
2018-10-06T11:07:02.466Z,96250.62
2018-10-06T11:08:44.072Z,96239.42
2018-10-06T11:10:22.027Z,96235.59
2018-10-06T11:12:03.464Z,96244.56
2018-10-06T11:13:40.400Z,96239.20
2018-10-06T11:15:19.571Z,96237.20
2018-10-06T11:16:57.933Z,96232.69
2018-10-06T11:18:33.381Z,96227.33
2018-10-06T11:20:13.053Z,96225.45
2018-10-06T11:21:49.944Z,96227.95
2018-10-06T11:23:30.612Z,96230.50
2018-10-06T11:25:06.491Z,96221.89
2018-10-06T11:26:45.230Z,96219.94
2018-10-06T11:28:25.118Z,96223.75
2018-10-06T11:30:01.742Z,96223.16
2018-10-06T11:31:39.773Z,96219.10
2018-10-06T11:33:16.540Z,96223.33
2018-10-06T11:34:53.390Z,96221.28
2018-10-06T11:36:35.576Z,96212.78
2018-10-06T11:38:16.782Z,96211.05
2018-10-06T11:39:55.091Z,96215.42
2018-10-06T11:41:31.759Z,96211.08
2018-10-06T11:43:07.778Z,96205.58
2018-10-06T11:44:45.201Z,96205.58
2018-10-06T11:46:24.576Z,96192.95
2018-10-06T11:48:02.278Z,96201.98
2018-10-06T11:49:40.515Z,96195.04
2018-10-06T11:51:19.613Z,96196.89
2018-10-06T11:52:56.326Z,96187.95
2018-10-06T11:54:32.277Z,96191.75
2018-10-06T11:56:09.428Z,96188.75
2018-10-06T11:57:48.445Z,96183.92
2018-10-06T11:59:25.893Z,96186.62
2018-10-06T12:01:01.278Z,96177.00
2018-10-06T12:02:38.056Z,96175.31
2018-10-06T12:04:14.815Z,96172.66
2018-10-06T12:05:50.998Z,96169.21
2018-10-06T12:07:30.168Z,96169.80
2018-10-06T12:09:07.806Z,96174.20
2018-10-06T12:10:45.231Z,96166.81
2018-10-06T12:12:22.775Z,96163.61
2018-10-06T12:14:02.852Z,96159.05
2018-10-06T12:15:40.306Z,96158.91
2018-10-06T12:17:19.986Z,96158.36
2018-10-06T12:21:51.234Z,96157.79
2018-10-06T12:23:29.665Z,96153.63
2018-10-06T12:25:06.400Z,96156.22
2018-10-06T12:26:42.246Z,96156.86
2018-10-06T12:28:21.661Z,96149.22
2018-10-06T12:29:58.098Z,96149.13
2018-10-06T12:31:35.749Z,96150.33
2018-10-06T12:33:12.476Z,96151.28
2018-10-06T12:34:49.050Z,96144.36
2018-10-06T12:36:28.211Z,96149.42
2018-10-06T12:38:07.554Z,96143.86
2018-10-06T12:39:48.769Z,96140.65
2018-10-06T12:41:26.302Z,96143.98
2018-10-06T12:43:01.857Z,96139.53
2018-10-06T12:44:37.316Z,96146.25
2018-10-06T12:46:13.510Z,96145.56
2018-10-06T12:47:56.602Z,96139.72
2018-10-06T12:49:34.116Z,96140.30
2018-10-06T12:51:10.726Z,96143.84
2018-10-06T12:52:51.618Z,96142.22
2018-10-06T12:54:31.774Z,96148.58
2018-10-06T12:56:10.706Z,96134.39
2018-10-06T12:57:50.211Z,96136.11
2018-10-06T12:59:27.995Z,96135.62
2018-10-06T13:01:05.774Z,96132.66
2018-10-06T13:04:18.916Z,96130.13
2018-10-06T13:05:54.658Z,96134.16
2018-10-06T13:07:31.695Z,96129.19
2018-10-06T13:09:14.383Z,96126.19
2018-10-06T13:10:49.734Z,96128.48
2018-10-06T13:12:30.406Z,96121.72
2018-10-06T13:14:05.957Z,96121.36
2018-10-06T13:15:43.003Z,96120.13
2018-10-06T13:17:18.562Z,96119.83
2018-10-06T13:19:12.588Z,96120.43
2018-10-06T13:20:52.737Z,96127.74
2018-10-06T13:22:29.843Z,96121.67
2018-10-06T13:24:07.607Z,96120.87
2018-10-06T13:25:44.500Z,96118.30
2018-10-06T13:27:21.280Z,96114.59
2018-10-06T13:28:59.401Z,96122.55
2018-10-06T13:30:35.890Z,96112.80
2018-10-06T13:32:14.512Z,96110.20
2018-10-06T13:33:53.216Z,96116.91
2018-10-06T13:35:30.314Z,96118.19
2018-10-06T13:37:08.191Z,96119.97
2018-10-06T13:38:49.272Z,96116.28
2018-10-06T13:40:38.741Z,96116.70
2018-10-06T13:42:20.740Z,96114.39
2018-10-06T13:49:54.113Z,96113.70
2018-10-06T13:51:32.045Z,96112.41
2018-10-06T13:53:11.623Z,96107.97
2018-10-06T13:54:49.728Z,96105.59
2018-10-06T13:56:27.395Z,96104.59
2018-10-06T13:58:02.954Z,96101.06
2018-10-06T13:59:39.291Z,96099.08
2018-10-06T14:01:15.751Z,96093.17
2018-10-06T14:03:01.234Z,96099.06
2018-10-06T14:04:41.733Z,96094.83
2018-10-06T14:06:22.169Z,96099.97
2018-10-06T14:08:00.496Z,96099.14
2018-10-06T14:09:39.103Z,96094.10
2018-10-06T14:11:14.894Z,96094.91
2018-10-06T14:12:51.465Z,96095.16
2018-10-06T14:14:27.829Z,96087.96
2018-10-06T14:16:03.623Z,96091.08
2018-10-06T14:17:41.660Z,96086.13
2018-10-06T14:19:22.883Z,96081.38
2018-10-06T14:21:11.506Z,96085.45
2018-10-06T14:22:49.360Z,96084.19
2018-10-06T14:24:32.590Z,96091.47
2018-10-06T14:26:09.619Z,96083.69
2018-10-06T14:27:47.132Z,96081.58
2018-10-06T14:29:29.685Z,96085.14
2018-10-06T14:31:10.130Z,96086.69
2018-10-06T14:32:46.912Z,96083.26
2018-10-06T14:34:22.457Z,96085.08
2018-10-06T14:35:58.625Z,96077.73
2018-10-06T14:37:34.605Z,96073.01
2018-10-06T14:39:15.179Z,96078.97
2018-10-06T14:40:51.618Z,96073.05
2018-10-06T14:42:27.156Z,96069.81
2018-10-06T14:44:04.764Z,96069.66
2018-10-06T14:45:44.335Z,96076.28
2018-10-06T14:47:20.052Z,96077.13
2018-10-06T14:48:56.529Z,96074.02
2018-10-06T14:50:33.429Z,96067.06
2018-10-06T14:52:10.789Z,96065.88
2018-10-06T14:53:46.509Z,96065.95
2018-10-06T14:55:22.899Z,96060.37
2018-10-06T14:57:00.620Z,96061.77
2018-10-06T14:58:37.472Z,96062.20
2018-10-06T15:00:19.317Z,96059.38
2018-10-06T15:01:58.606Z,96058.56
2018-10-06T15:03:35.698Z,96053.95
2018-10-06T15:05:13.728Z,96054.89
2018-10-06T15:06:49.369Z,96055.67
2018-10-06T15:08:25.936Z,96057.17
2018-10-06T15:10:06.573Z,96058.03
2018-10-06T15:11:43.062Z,96052.05
2018-10-06T15:13:22.902Z,96047.91
2018-10-06T15:14:59.856Z,96044.58
2018-10-06T15:16:38.798Z,96049.18
2018-10-06T15:18:16.946Z,96042.01
2018-10-06T15:19:54.972Z,96043.95
2018-10-06T15:21:34.464Z,96038.17
2018-10-06T15:23:13.190Z,96038.07
2018-10-06T15:24:49.152Z,96035.39
2018-10-06T15:26:28.313Z,96034.97
2018-10-06T15:28:08.533Z,96044.17
2018-10-06T15:29:47.605Z,96037.20
2018-10-06T15:31:26.670Z,96031.86
2018-10-06T15:33:05.053Z,96028.86
2018-10-06T15:34:41.277Z,96026.30
2018-10-06T15:36:17.009Z,96030.36
2018-10-06T15:37:52.557Z,96028.55
2018-10-06T15:39:28.053Z,96024.28
2018-10-06T15:41:04.940Z,96028.03
2018-10-06T15:42:41.096Z,96023.53
2018-10-06T15:44:16.806Z,96028.34
2018-10-06T15:45:54.513Z,96022.47
2018-10-06T15:47:31.393Z,96023.11
2018-10-06T15:49:08.439Z,96027.58
2018-10-06T15:50:44.030Z,96025.55
2018-10-06T15:52:20.863Z,96024.38
2018-10-06T15:54:01.875Z,96024.92
2018-10-06T15:55:38.328Z,96020.52
2018-10-06T15:57:17.151Z,96023.17
2018-10-06T15:58:56.393Z,96022.86
2018-10-06T16:00:36.484Z,96022.20
2018-10-06T16:02:12.745Z,96022.20
2018-10-06T16:03:57.297Z,96026.05
2018-10-06T16:05:33.547Z,96028.45
2018-10-06T16:07:09.842Z,96030.48
2018-10-06T16:08:46.184Z,96028.87
2018-10-06T16:10:25.357Z,96028.61
2018-10-06T16:12:00.647Z,96031.38
2018-10-06T16:13:38.119Z,96029.61
2018-10-06T16:15:16.719Z,96031.27
2018-10-06T16:17:06.446Z,96028.13
2018-10-06T16:18:52.517Z,96031.72
2018-10-06T16:20:29.189Z,96030.84
2018-10-06T16:22:12.808Z,96023.33
2018-10-06T16:23:52.899Z,96033.77
2018-10-06T16:25:29.015Z,96031.81
2018-10-06T16:27:12.787Z,96026.35
2018-10-06T16:28:54.495Z,96032.59
2018-10-06T16:30:33.458Z,96029.73
2018-10-06T16:32:10.877Z,96030.17
2018-10-06T16:33:51.834Z,96032.42
2018-10-06T16:35:28.119Z,96035.60
2018-10-06T16:37:04.671Z,96035.63
2018-10-06T16:38:40.506Z,96032.13
2018-10-06T16:40:18.632Z,96037.95
2018-10-06T16:41:56.242Z,96036.06
2018-10-06T16:43:36.684Z,96036.94
2018-10-06T16:45:16.401Z,96030.69
2018-10-06T16:46:55.523Z,96030.59
2018-10-06T16:48:32.373Z,96032.61
2018-10-06T16:50:08.329Z,96031.22
2018-10-06T16:51:44.252Z,96030.27
2018-10-06T16:53:22.018Z,96032.00
2018-10-06T16:54:57.953Z,96030.71
2018-10-06T16:56:36.460Z,96033.12
2018-10-06T16:58:15.169Z,96035.14
2018-10-06T16:59:57.585Z,96041.37
2018-10-06T17:01:33.651Z,96044.73
2018-10-06T17:03:10.204Z,96044.54
2018-10-06T17:04:46.881Z,96049.86
2018-10-06T17:06:23.079Z,96051.67
2018-10-06T17:07:58.766Z,96055.56
2018-10-06T17:09:35.108Z,96052.19
2018-10-06T17:11:12.774Z,96051.33
2018-10-06T17:12:48.480Z,96056.40
2018-10-06T17:14:25.159Z,96052.44
2018-10-06T17:16:02.854Z,96057.96
2018-10-06T17:17:41.170Z,96057.09
2018-10-06T17:19:19.631Z,96052.00
2018-10-06T17:20:55.716Z,96061.81
2018-10-06T17:22:33.409Z,96055.95
2018-10-06T17:24:10.399Z,96060.22
2018-10-06T17:25:47.701Z,96062.99
2018-10-06T17:27:25.242Z,96059.59
2018-10-06T17:29:01.383Z,96058.98
2018-10-06T17:30:38.431Z,96062.78
2018-10-06T17:32:15.635Z,96060.52
2018-10-06T17:33:53.874Z,96061.66
2018-10-06T17:35:39.365Z,96065.80
2018-10-06T17:37:16.311Z,96064.30
2018-10-06T17:38:55.365Z,96065.55
2018-10-06T17:40:31.203Z,96073.46
2018-10-06T17:42:07.680Z,96074.34
2018-10-06T17:43:48.258Z,96078.64
2018-10-06T17:45:28.656Z,96077.76
2018-10-06T17:47:06.369Z,96077.91
2018-10-06T17:48:47.399Z,96080.80
2018-10-06T17:50:24.624Z,96078.66
2018-10-06T17:52:33.471Z,96080.05
2018-10-06T17:54:12.828Z,96076.03
2018-10-06T17:55:56.714Z,96078.94
2018-10-06T17:57:33.599Z,96081.81
2018-10-06T17:59:09.983Z,96078.94
2018-10-06T18:00:50.430Z,96083.20
2018-10-06T18:02:33.389Z,96086.58
2018-10-06T18:04:12.063Z,96089.84
2018-10-06T18:05:47.845Z,96089.09
2018-10-06T18:07:32.503Z,96094.73
2018-10-06T18:09:11.405Z,96087.59
2018-10-06T18:10:54.556Z,96088.45
2018-10-06T18:12:35.978Z,96096.11
2018-10-06T18:14:12.659Z,96097.38
2018-10-06T18:15:48.689Z,96093.34
2018-10-06T18:17:25.251Z,96098.50
2018-10-06T18:19:06.645Z,96096.61
2018-10-06T18:20:43.170Z,96099.50
2018-10-06T18:22:21.324Z,96103.65
2018-10-06T18:24:02.760Z,96108.39
2018-10-06T18:25:40.949Z,96109.78
2018-10-06T18:27:19.656Z,96110.78
2018-10-06T18:29:04.978Z,96109.64
2018-10-06T18:30:43.965Z,96113.55
2018-10-06T18:32:22.044Z,96109.64
2018-10-06T18:33:59.675Z,96116.52
2018-10-06T18:35:40.687Z,96116.67
2018-10-06T18:37:19.717Z,96118.27
2018-10-06T18:38:58.259Z,96118.81
2018-10-06T18:40:36.106Z,96120.51
2018-10-06T18:42:14.319Z,96119.77
2018-10-06T18:43:53.514Z,96117.75
2018-10-06T18:45:33.408Z,96120.27
2018-10-06T18:47:12.865Z,96119.16
2018-10-06T18:48:50.303Z,96119.63
2018-10-06T18:50:33.542Z,96121.78
2018-10-06T18:52:10.610Z,96116.27
2018-10-06T18:53:50.551Z,96118.53
2018-10-06T18:55:34.064Z,96114.36
2018-10-06T18:57:18.797Z,96121.39
2018-10-06T18:58:57.104Z,96118.64
2018-10-06T19:00:37.640Z,96122.36
2018-10-06T19:02:14.367Z,96120.09
2018-10-06T19:03:52.818Z,96119.61
2018-10-06T19:05:33.678Z,96122.59
2018-10-06T19:07:15.453Z,96122.13
2018-10-06T19:08:55.458Z,96123.38
2018-10-06T19:10:34.811Z,96124.62
2018-10-06T19:12:39.898Z,96126.50
2018-10-06T19:14:18.366Z,96126.84
2018-10-06T19:15:57.408Z,96130.73
2018-10-06T19:17:37.376Z,96128.34
2018-10-06T19:19:15.790Z,96128.08
2018-10-06T19:20:52.217Z,96130.31
2018-10-06T19:22:29.654Z,96135.30
2018-10-06T19:24:08.908Z,96134.80
2018-10-06T19:25:45.001Z,96133.92
2018-10-06T19:27:23.948Z,96134.15
2018-10-06T19:29:01.157Z,96143.83
2018-10-06T19:30:37.968Z,96141.04
2018-10-06T19:32:17.773Z,96148.32
2018-10-06T19:33:57.626Z,96149.44